Time;durP1;ratioP1;P1;durP2;ratioP2;P2;SDS_P1;SDS_P2;PMS_P1;PMS_P2;Temp;Humidity;BMP_temperature;BMP_pressure;BME280_temperature;BME280_humidity;BME280_pressure;Samples;Min_cycle;Max_cycle;Signal;HPM_P1;HPM_P2
2021/06/04 00:01:14;;;;;;;17.88;2.72;;;;;;;;;;4919873;29;20040;-48
2021/06/04 00:03:41;;;;;;;15.50;3.00;;;;;;;;;;4919925;29;20047;-46
2021/06/04 00:06:08;;;;;;;14.63;2.72;;;;;;;;;;4922809;29;20024;-44
2021/06/04 00:08:35;;;;;;;8.43;2.30;;;;;;;;;;4924185;29;20437;-45
2021/06/04 00:11:14;;;;;;;12.05;2.88;;;;;;;;;;4923894;29;20076;-43
2021/06/04 00:13:41;;;;;;;12.50;2.67;;;;;;;;;;4920179;29;20036;-45
2021/06/04 00:16:10;;;;;;;7.28;2.70;;;;;;;;;;4931364;29;20015;-45
2021/06/04 00:18:38;;;;;;;17.45;3.28;;;;;;;;;;4927885;29;20035;-44
2021/06/04 00:21:08;;;;;;;9.85;2.25;;;;;;;;;;4924242;29;20015;-48
2021/06/04 00:23:35;;;;;;;10.50;2.55;;;;;;;;;;4928703;29;20078;-44
2021/06/04 00:26:02;;;;;;;9.18;2.95;;;;;;;;;;4928745;29;20019;-44
2021/06/04 00:28:29;;;;;;;9.85;2.50;;;;;;;;;;4927447;29;20532;-44
2021/06/04 00:30:56;;;;;;;11.80;2.70;;;;;;;;;;4904498;29;20055;-44
2021/06/04 00:33:24;;;;;;;15.23;2.83;;;;;;;;;;4927934;29;20032;-45
2021/06/04 00:35:51;;;;;;;14.65;2.97;;;;;;;;;;4928925;29;20064;-44
2021/06/04 00:38:18;;;;;;;9.50;2.33;;;;;;;;;;4914244;29;20051;-46
2021/06/04 00:40:47;;;;;;;13.68;3.03;;;;;;;;;;4922719;29;20024;-44
2021/06/04 00:43:15;;;;;;;9.68;2.88;;;;;;;;;;4923694;29;20488;-42
2021/06/04 00:45:44;;;;;;;16.95;2.60;;;;;;;;;;4925079;29;20024;-44
2021/06/04 00:48:11;;;;;;;10.55;2.80;;;;;;;;;;4925817;29;20723;-43
2021/06/04 00:50:45;;;;;;;9.27;2.47;;;;;;;;;;4913071;29;20126;-44
2021/06/04 00:53:12;;;;;;;14.73;3.22;;;;;;;;;;4922845;29;20059;-43
2021/06/04 00:55:40;;;;;;;15.25;3.05;;;;;;;;;;4924367;29;20023;-44
2021/06/04 00:58:08;;;;;;;14.57;3.28;;;;;;;;;;4931729;29;20040;-43
2021/06/04 01:00:37;;;;;;;9.40;2.97;;;;;;;;;;4931010;29;20035;-45
2021/06/04 01:03:05;;;;;;;11.15;3.35;;;;;;;;;;4926148;29;20047;-43
2021/06/04 01:05:33;;;;;;;15.93;3.05;;;;;;;;;;4931574;29;20024;-44
2021/06/04 01:08:03;;;;;;;11.25;3.08;;;;;;;;;;4932866;29;20727;-43
2021/06/04 01:10:33;;;;;;;10.75;3.33;;;;;;;;;;4924437;29;20055;-44
2021/06/04 01:13:03;;;;;;;11.00;3.38;;;;;;;;;;4928194;29;20028;-46
2021/06/04 01:15:48;;;;;;;12.40;3.03;;;;;;;;;;4926929;29;20147;-45
2021/06/04 01:18:15;;;;;;;13.25;3.38;;;;;;;;;;4916925;29;20028;-44
2021/06/04 01:20:48;;;;;;;25.55;4.00;;;;;;;;;;4931358;29;20024;-44
2021/06/04 01:23:27;;;;;;;10.15;3.10;;;;;;;;;;4931347;29;20099;-43
2021/06/04 01:26:07;;;;;;;14.98;3.72;;;;;;;;;;4926094;29;20032;-44
2021/06/04 01:28:38;;;;;;;13.48;3.30;;;;;;;;;;4928425;29;20024;-43
2021/06/04 01:31:12;;;;;;;10.25;3.53;;;;;;;;;;4924509;29;20052;-45
2021/06/04 01:33:42;;;;;;;17.65;4.05;;;;;;;;;;4927259;29;20020;-43
2021/06/04 01:36:09;;;;;;;7.80;3.00;;;;;;;;;;4928374;29;20032;-47
2021/06/04 01:38:39;;;;;;;11.00;3.15;;;;;;;;;;4928009;29;20492;-43
2021/06/04 01:41:08;;;;;;;12.30;3.00;;;;;;;;;;4923122;29;20032;-44
2021/06/04 01:43:40;;;;;;;7.68;2.55;;;;;;;;;;4920365;29;20117;-47
2021/06/04 01:46:16;;;;;;;10.38;2.90;;;;;;;;;;4925943;29;20058;-46
2021/06/04 01:48:46;;;;;;;10.00;3.40;;;;;;;;;;4909433;29;20048;-43
2021/06/04 01:51:16;;;;;;;15.15;3.30;;;;;;;;;;4930353;29;20031;-46
2021/06/04 01:53:45;;;;;;;7.63;2.92;;;;;;;;;;4926223;29;20190;-45
2021/06/04 01:56:18;;;;;;;15.85;3.28;;;;;;;;;;4922484;29;20106;-42
2021/06/04 01:58:50;;;;;;;19.55;3.58;;;;;;;;;;4924658;29;20024;-45
2021/06/04 02:01:20;;;;;;;19.65;3.65;;;;;;;;;;4925075;29;20528;-45
2021/06/04 02:03:47;;;;;;;18.17;3.25;;;;;;;;;;4929877;29;20066;-42
2021/06/04 02:06:14;;;;;;;15.77;3.17;;;;;;;;;;4930033;29;20020;-42
2021/06/04 02:08:47;;;;;;;10.20;3.05;;;;;;;;;;4922606;29;20388;-48
2021/06/04 02:11:15;;;;;;;19.13;3.60;;;;;;;;;;4927364;29;20039;-50
2021/06/04 02:13:46;;;;;;;13.68;2.97;;;;;;;;;;4924822;29;20064;-49
2021/06/04 02:16:22;;;;;;;9.70;3.25;;;;;;;;;;4929630;29;20027;-49
2021/06/04 02:19:08;;;;;;;9.93;2.88;;;;;;;;;;4925779;29;20028;-49
2021/06/04 02:21:38;;;;;;;7.47;2.92;;;;;;;;;;4922647;29;20497;-48
2021/06/04 02:24:12;;;;;;;11.93;2.90;;;;;;;;;;4926842;29;20028;-50
2021/06/04 02:26:47;;;;;;;10.07;3.10;;;;;;;;;;4928193;29;20038;-49
2021/06/04 02:29:14;;;;;;;13.75;3.50;;;;;;;;;;4929263;29;20040;-50
2021/06/04 02:31:47;;;;;;;10.50;2.78;;;;;;;;;;4934272;29;20024;-50
2021/06/04 02:34:20;;;;;;;10.15;2.42;;;;;;;;;;4934746;29;20019;-50
2021/06/04 02:37:03;;;;;;;8.13;2.70;;;;;;;;;;4933338;29;20459;-50
2021/06/04 02:39:35;;;;;;;10.07;2.47;;;;;;;;;;4933662;29;20107;-51
2021/06/04 02:42:07;;;;;;;8.73;2.88;;;;;;;;;;4932444;29;20024;-49
2021/06/04 02:44:37;;;;;;;8.98;2.85;;;;;;;;;;4917525;29;20028;-50
2021/06/04 02:47:11;;;;;;;8.80;2.70;;;;;;;;;;4934436;29;20074;-50
2021/06/04 02:49:39;;;;;;;7.70;2.30;;;;;;;;;;4932386;29;20067;-54
2021/06/04 02:52:25;;;;;;;6.00;2.42;;;;;;;;;;4934434;29;20112;-53
2021/06/04 02:54:53;;;;;;;8.20;2.60;;;;;;;;;;4933992;29;20019;-50
2021/06/04 02:57:22;;;;;;;9.73;2.90;;;;;;;;;;4917342;29;20035;-52
2021/06/04 02:59:50;;;;;;;13.07;3.10;;;;;;;;;;4930987;29;20421;-52
2021/06/04 03:02:19;;;;;;;9.85;2.20;;;;;;;;;;4934349;29;20058;-52
2021/06/04 03:04:48;;;;;;;6.70;2.97;;;;;;;;;;4933987;29;20023;-49
2021/06/04 03:07:19;;;;;;;8.50;2.50;;;;;;;;;;4934242;29;20020;-53
2021/06/04 03:09:46;;;;;;;6.32;2.40;;;;;;;;;;4934808;29;20039;-53
2021/06/04 03:12:16;;;;;;;10.50;3.17;;;;;;;;;;4934388;29;20050;-52
2021/06/04 03:14:44;;;;;;;7.88;2.35;;;;;;;;;;4933922;29;20020;-50
2021/06/04 03:17:12;;;;;;;6.65;2.45;;;;;;;;;;4917292;29;20500;-53
2021/06/04 03:19:39;;;;;;;11.52;2.80;;;;;;;;;;4934411;29;20094;-50
2021/06/04 03:22:11;;;;;;;8.55;3.00;;;;;;;;;;4934149;29;20071;-60
2021/06/04 03:24:40;;;;;;;6.40;2.53;;;;;;;;;;4933845;29;20019;-60
2021/06/04 03:27:08;;;;;;;9.43;2.75;;;;;;;;;;4933902;29;20035;-57
2021/06/04 03:29:38;;;;;;;7.18;2.28;;;;;;;;;;4934650;29;20031;-59
2021/06/04 03:32:08;;;;;;;12.88;2.42;;;;;;;;;;4917524;29;20095;-59
2021/06/04 03:34:36;;;;;;;14.30;2.78;;;;;;;;;;4935024;29;20107;-59
2021/06/04 03:37:04;;;;;;;6.18;2.70;;;;;;;;;;4934645;29;20058;-59
2021/06/04 03:39:33;;;;;;;13.05;3.00;;;;;;;;;;4917767;29;20118;-59
2021/06/04 03:42:00;;;;;;;10.77;2.30;;;;;;;;;;4934830;29;20024;-59
2021/06/04 03:44:29;;;;;;;9.07;3.30;;;;;;;;;;4934683;29;20488;-59
2021/06/04 03:46:57;;;;;;;9.82;2.67;;;;;;;;;;4934847;29;21115;-59
2021/06/04 03:49:24;;;;;;;10.52;2.40;;;;;;;;;;4934669;29;20023;-60
2021/06/04 03:51:53;;;;;;;14.52;2.70;;;;;;;;;;4917523;29;20433;-60
2021/06/04 03:54:22;;;;;;;8.75;2.60;;;;;;;;;;4934632;29;20473;-59
2021/06/04 03:56:49;;;;;;;7.38;2.58;;;;;;;;;;4934558;29;20400;-59
2021/06/04 03:59:17;;;;;;;10.05;2.60;;;;;;;;;;4934747;29;20643;-59
2021/06/04 04:01:47;;;;;;;9.85;3.10;;;;;;;;;;4934445;29;20024;-57
2021/06/04 04:04:14;;;;;;;15.48;2.67;;;;;;;;;;4934629;29;20052;-60
2021/06/04 04:06:41;;;;;;;15.73;2.70;;;;;;;;;;4934661;29;20415;-60
2021/06/04 04:09:09;;;;;;;7.43;2.65;;;;;;;;;;4934634;29;20027;-59
2021/06/04 04:11:37;;;;;;;8.90;3.08;;;;;;;;;;4934446;29;20035;-59
2021/06/04 04:14:04;;;;;;;7.75;2.13;;;;;;;;;;4934544;29;20102;-59
2021/06/04 04:16:31;;;;;;;6.47;2.08;;;;;;;;;;4934505;29;20031;-59
2021/06/04 04:18:58;;;;;;;7.88;2.47;;;;;;;;;;4936717;29;20361;-59
2021/06/04 04:21:26;;;;;;;10.55;2.50;;;;;;;;;;4938432;29;20110;-59
2021/06/04 04:23:58;;;;;;;8.93;3.00;;;;;;;;;;4947780;29;20115;-59
2021/06/04 04:26:28;;;;;;;7.30;2.42;;;;;;;;;;4920105;29;20035;-59
2021/06/04 04:28:55;;;;;;;11.52;2.17;;;;;;;;;;4937451;29;20038;-59
2021/06/04 04:31:25;;;;;;;10.05;2.80;;;;;;;;;;4937176;29;20118;-59
2021/06/04 04:33:52;;;;;;;7.60;2.88;;;;;;;;;;4937405;29;20024;-60
2021/06/04 04:36:20;;;;;;;9.73;2.15;;;;;;;;;;4936698;29;20019;-59
2021/06/04 04:38:47;;;;;;;9.45;2.83;;;;;;;;;;4937439;29;20440;-60
2021/06/04 04:41:14;;;;;;;11.20;2.30;;;;;;;;;;4936782;29;20020;-59
2021/06/04 04:43:44;;;;;;;12.82;2.78;;;;;;;;;;4937094;29;20143;-59
2021/06/04 04:46:13;;;;;;;9.95;2.58;;;;;;;;;;4920047;29;20574;-57
2021/06/04 04:48:40;;;;;;;6.10;2.20;;;;;;;;;;4937181;29;20099;-59
2021/06/04 04:51:08;;;;;;;5.63;2.15;;;;;;;;;;4937077;29;20047;-57
2021/06/04 04:53:36;;;;;;;7.80;2.40;;;;;;;;;;4936556;29;20051;-60
2021/06/04 04:56:03;;;;;;;9.93;2.10;;;;;;;;;;4936934;29;20499;-60
2021/06/04 04:58:30;;;;;;;6.10;1.92;;;;;;;;;;4936660;29;20034;-58
2021/06/04 05:00:58;;;;;;;5.15;1.85;;;;;;;;;;4936869;29;20059;-60
2021/06/04 05:03:26;;;;;;;8.18;2.35;;;;;;;;;;4936745;29;20023;-60
2021/06/04 05:05:53;;;;;;;6.60;2.13;;;;;;;;;;4936735;29;20075;-59
2021/06/04 05:08:20;;;;;;;6.68;1.98;;;;;;;;;;4936505;29;20027;-59
2021/06/04 05:10:48;;;;;;;5.97;2.25;;;;;;;;;;4936728;29;20035;-59
2021/06/04 05:13:15;;;;;;;4.72;2.15;;;;;;;;;;4936374;29;20035;-58
2021/06/04 05:15:43;;;;;;;5.97;2.67;;;;;;;;;;4936582;29;20086;-59
2021/06/04 05:18:13;;;;;;;4.80;2.05;;;;;;;;;;4936379;29;20031;-59
2021/06/04 05:20:41;;;;;;;4.28;2.10;;;;;;;;;;4936832;29;20027;-58
2021/06/04 05:23:08;;;;;;;6.68;1.98;;;;;;;;;;4936214;29;20036;-59
2021/06/04 05:25:39;;;;;;;8.52;2.33;;;;;;;;;;4936330;29;20024;-59
2021/06/04 05:28:07;;;;;;;6.25;1.95;;;;;;;;;;4936457;29;20535;-58
2021/06/04 05:30:36;;;;;;;9.48;2.58;;;;;;;;;;4935447;29;20036;-59
2021/06/04 05:33:03;;;;;;;4.50;1.88;;;;;;;;;;4936585;29;20031;-59
2021/06/04 05:35:30;;;;;;;4.53;2.10;;;;;;;;;;4935430;29;20032;-59
2021/06/04 05:37:57;;;;;;;9.20;2.20;;;;;;;;;;4919136;29;20103;-59
2021/06/04 05:40:29;;;;;;;5.00;1.88;;;;;;;;;;4935848;29;20051;-58
2021/06/04 05:42:57;;;;;;;4.95;2.13;;;;;;;;;;4936383;29;20024;-59
2021/06/04 05:45:25;;;;;;;4.85;1.83;;;;;;;;;;4935564;29;20384;-59
2021/06/04 05:47:52;;;;;;;5.20;1.83;;;;;;;;;;4936254;29;20020;-59
2021/06/04 05:50:22;;;;;;;5.53;1.83;;;;;;;;;;4935731;29;20032;-59
2021/06/04 05:52:49;;;;;;;4.35;1.92;;;;;;;;;;4935811;29;20083;-59
2021/06/04 05:55:18;;;;;;;5.60;2.60;;;;;;;;;;4918308;29;20055;-59
2021/06/04 05:57:45;;;;;;;6.10;2.05;;;;;;;;;;4936102;29;20043;-57
2021/06/04 06:00:15;;;;;;;4.00;1.95;;;;;;;;;;4935306;29;20499;-59
2021/06/04 06:02:43;;;;;;;3.72;1.85;;;;;;;;;;4935765;29;20485;-59
2021/06/04 06:05:10;;;;;;;4.38;1.80;;;;;;;;;;4935236;29;20031;-59
2021/06/04 06:07:37;;;;;;;6.82;1.75;;;;;;;;;;4935823;29;20428;-58
2021/06/04 06:10:05;;;;;;;4.70;1.95;;;;;;;;;;4935243;29;20043;-59
2021/06/04 06:12:32;;;;;;;3.55;1.85;;;;;;;;;;4935698;29;20034;-58
2021/06/04 06:14:59;;;;;;;3.70;2.03;;;;;;;;;;4935418;29;20060;-58
2021/06/04 06:17:26;;;;;;;4.72;2.05;;;;;;;;;;4935212;29;20110;-59
2021/06/04 06:19:53;;;;;;;3.47;1.85;;;;;;;;;;4935654;29;20098;-59
2021/06/04 06:22:20;;;;;;;5.22;1.92;;;;;;;;;;4935038;29;20043;-58
2021/06/04 06:24:47;;;;;;;6.40;1.75;;;;;;;;;;4935389;29;20027;-59
2021/06/04 06:27:14;;;;;;;3.40;1.85;;;;;;;;;;4934831;29;20480;-59
2021/06/04 06:29:41;;;;;;;2.95;1.63;;;;;;;;;;4918560;29;20400;-59
2021/06/04 06:32:11;;;;;;;5.05;2.00;;;;;;;;;;4934956;29;20034;-59
2021/06/04 06:34:38;;;;;;;4.40;1.85;;;;;;;;;;4934892;29;20035;-58
2021/06/04 06:37:06;;;;;;;3.92;1.80;;;;;;;;;;4934322;29;20044;-58
2021/06/04 06:39:34;;;;;;;3.17;1.80;;;;;;;;;;4935157;29;20031;-58
2021/06/04 06:42:03;;;;;;;3.80;1.45;;;;;;;;;;4934668;29;20023;-59
2021/06/04 06:44:32;;;;;;;3.15;1.77;;;;;;;;;;4935349;29;20102;-59
2021/06/04 06:46:59;;;;;;;3.20;1.80;;;;;;;;;;4934368;29;20503;-59
2021/06/04 06:49:27;;;;;;;2.97;1.83;;;;;;;;;;4934798;29;20047;-59
2021/06/04 06:51:55;;;;;;;4.18;1.90;;;;;;;;;;4934828;29;20031;-58
2021/06/04 06:54:23;;;;;;;4.13;1.70;;;;;;;;;;4935305;29;20042;-59
2021/06/04 06:56:51;;;;;;;4.75;2.00;;;;;;;;;;4934275;29;20066;-60
2021/06/04 06:59:19;;;;;;;3.05;1.63;;;;;;;;;;4935076;29;20031;-59
2021/06/04 07:01:46;;;;;;;5.35;2.33;;;;;;;;;;4935052;29;20016;-60
2021/06/04 07:04:13;;;;;;;4.93;1.73;;;;;;;;;;4934443;29;20035;-60
2021/06/04 07:06:41;;;;;;;3.63;1.70;;;;;;;;;;4934755;29;20413;-59
2021/06/04 07:09:10;;;;;;;4.38;1.70;;;;;;;;;;4934454;29;20051;-59
2021/06/04 07:11:38;;;;;;;4.20;1.90;;;;;;;;;;4934510;29;20067;-59
2021/06/04 07:14:06;;;;;;;4.07;1.50;;;;;;;;;;4934103;29;20094;-58
2021/06/04 07:16:33;;;;;;;6.72;1.85;;;;;;;;;;4934573;29;20030;-59
2021/06/04 07:19:00;;;;;;;3.85;1.80;;;;;;;;;;4934016;29;20066;-57
2021/06/04 07:21:28;;;;;;;5.88;1.90;;;;;;;;;;4934604;29;20023;-57
2021/06/04 07:23:56;;;;;;;3.15;1.77;;;;;;;;;;4934336;29;20484;-59
2021/06/04 07:26:24;;;;;;;3.63;1.75;;;;;;;;;;4934558;29;20031;-59
2021/06/04 07:28:51;;;;;;;3.10;1.65;;;;;;;;;;4934137;29;20031;-59
2021/06/04 07:31:19;;;;;;;2.05;1.38;;;;;;;;;;4934725;29;20032;-59
2021/06/04 07:33:53;;;;;;;3.28;1.85;;;;;;;;;;4934073;29;20020;-59
2021/06/04 07:36:26;;;;;;;2.40;1.85;;;;;;;;;;4934060;29;20034;-60
2021/06/04 07:38:53;;;;;;;4.10;1.90;;;;;;;;;;4933957;29;20218;-59
2021/06/04 07:41:20;;;;;;;4.68;1.80;;;;;;;;;;4934529;29;20023;-59
2021/06/04 07:43:49;;;;;;;1.65;1.30;;;;;;;;;;4933968;29;20028;-60
2021/06/04 07:46:16;;;;;;;5.47;2.00;;;;;;;;;;4934130;29;20039;-60
2021/06/04 07:48:44;;;;;;;4.45;1.85;;;;;;;;;;4934483;29;20032;-59
2021/06/04 07:51:12;;;;;;;4.35;1.88;;;;;;;;;;4933964;29;20392;-60
2021/06/04 07:53:40;;;;;;;3.05;1.75;;;;;;;;;;4936144;29;20031;-59
2021/06/04 07:56:07;;;;;;;12.00;1.90;;;;;;;;;;4937612;29;20353;-60
2021/06/04 07:58:34;;;;;;;4.18;1.65;;;;;;;;;;4920763;29;20107;-59
2021/06/04 08:01:03;;;;;;;3.70;1.48;;;;;;;;;;4937362;29;20070;-59
2021/06/04 08:03:32;;;;;;;2.70;1.63;;;;;;;;;;4938080;29;20424;-59
2021/06/04 08:06:00;;;;;;;4.53;2.00;;;;;;;;;;4937653;29;20102;-59
2021/06/04 08:08:27;;;;;;;3.53;1.88;;;;;;;;;;4937815;29;20020;-58
2021/06/04 08:10:54;;;;;;;3.35;1.70;;;;;;;;;;4937214;29;20031;-60
2021/06/04 08:13:22;;;;;;;3.75;1.70;;;;;;;;;;4937922;29;20091;-59
2021/06/04 08:15:56;;;;;;;4.38;1.85;;;;;;;;;;4920301;29;20527;-58
2021/06/04 08:18:24;;;;;;;3.53;1.60;;;;;;;;;;4937677;29;20111;-59
2021/06/04 08:20:51;;;;;;;2.85;1.60;;;;;;;;;;4920058;29;20019;-57
2021/06/04 08:23:23;;;;;;;4.55;2.38;;;;;;;;;;4937879;29;20083;-58
2021/06/04 08:25:51;;;;;;;3.60;1.80;;;;;;;;;;4937291;29;20602;-58
2021/06/04 08:28:20;;;;;;;3.13;1.52;;;;;;;;;;4937363;29;20031;-58
2021/06/04 08:30:48;;;;;;;3.40;1.80;;;;;;;;;;4937386;29;20035;-56
2021/06/04 08:33:20;;;;;;;2.90;1.60;;;;;;;;;;4937472;29;20099;-59
2021/06/04 08:35:47;;;;;;;2.33;1.60;;;;;;;;;;4937450;29;20111;-59
2021/06/04 08:38:14;;;;;;;1.85;1.30;;;;;;;;;;4936803;29;20110;-60
2021/06/04 08:40:41;;;;;;;3.22;1.55;;;;;;;;;;4937361;29;20026;-59
2021/06/04 08:43:27;;;;;;;4.60;1.42;;;;;;;;;;4936910;29;20032;-59
2021/06/04 08:46:10;;;;;;;1.88;1.25;;;;;;;;;;4937286;29;20421;-59
2021/06/04 08:48:56;;;;;;;3.03;1.50;;;;;;;;;;4936593;29;20024;-58
2021/06/04 08:51:28;;;;;;;3.17;1.40;;;;;;;;;;4919922;29;20035;-59
2021/06/04 08:53:58;;;;;;;2.80;1.40;;;;;;;;;;4936687;29;20088;-58
2021/06/04 08:56:44;;;;;;;3.05;1.52;;;;;;;;;;4937370;29;20111;-58
2021/06/04 08:59:12;;;;;;;2.50;1.42;;;;;;;;;;4936693;29;20031;-59
2021/06/04 09:01:49;;;;;;;5.15;1.63;;;;;;;;;;4936775;29;20024;-58
2021/06/04 09:04:19;;;;;;;3.33;1.58;;;;;;;;;;4935548;29;20038;-59
2021/06/04 09:06:53;;;;;;;3.60;1.40;;;;;;;;;;4919740;29;20032;-58
2021/06/04 09:09:23;;;;;;;2.63;1.20;;;;;;;;;;4936427;29;20023;-58
2021/06/04 09:11:53;;;;;;;3.78;1.20;;;;;;;;;;4936959;29;20063;-59
2021/06/04 09:14:20;;;;;;;2.15;1.40;;;;;;;;;;4936201;29;20063;-58
2021/06/04 09:16:55;;;;;;;2.42;1.60;;;;;;;;;;4936551;29;20020;-58
2021/06/04 09:19:31;;;;;;;3.72;1.67;;;;;;;;;;4936288;29;20511;-58
2021/06/04 09:21:58;;;;;;;1.77;1.23;;;;;;;;;;4936678;29;20024;-56
2021/06/04 09:24:28;;;;;;;4.35;1.30;;;;;;;;;;4919465;29;20083;-58
2021/06/04 09:26:55;;;;;;;4.80;2.38;;;;;;;;;;4936598;29;20024;-58
2021/06/04 09:29:34;;;;;;;1.98;1.20;;;;;;;;;;4936079;29;20499;-58
2021/06/04 09:32:20;;;;;;;2.53;1.23;;;;;;;;;;4936701;29;20114;-58
2021/06/04 09:34:47;;;;;;;2.42;1.27;;;;;;;;;;4936095;29;20079;-58
2021/06/04 09:37:20;;;;;;;2.53;1.40;;;;;;;;;;4935127;29;20571;-59
2021/06/04 09:39:50;;;;;;;2.22;1.20;;;;;;;;;;4935522;29;20071;-59
2021/06/04 09:42:21;;;;;;;2.60;1.40;;;;;;;;;;4936474;29;20083;-59
2021/06/04 09:44:57;;;;;;;2.75;1.27;;;;;;;;;;4918452;29;20524;-60
2021/06/04 09:47:27;;;;;;;1.52;1.17;;;;;;;;;;4936147;29;20043;-58
2021/06/04 09:49:54;;;;;;;2.13;1.33;;;;;;;;;;4918266;29;20032;-59
2021/06/04 09:52:23;;;;;;;2.92;1.40;;;;;;;;;;4936265;29;20038;-58
2021/06/04 09:55:02;;;;;;;3.40;1.30;;;;;;;;;;4935381;29;20024;-59
2021/06/04 09:57:29;;;;;;;3.13;1.38;;;;;;;;;;4935938;29;20107;-57
2021/06/04 10:00:13;;;;;;;2.28;1.40;;;;;;;;;;4935239;29;20012;-59
2021/06/04 10:02:40;;;;;;;2.83;1.10;;;;;;;;;;4935942;29;20024;-59
2021/06/04 10:05:13;;;;;;;1.95;1.30;;;;;;;;;;4935335;29;20543;-57
2021/06/04 10:07:41;;;;;;;1.65;1.10;;;;;;;;;;4935887;29;20476;-60
2021/06/04 10:10:12;;;;;;;2.33;1.20;;;;;;;;;;4935187;29;20086;-59
2021/06/04 10:12:49;;;;;;;2.67;1.10;;;;;;;;;;4935743;29;20027;-58
2021/06/04 10:15:24;;;;;;;1.80;1.08;;;;;;;;;;4934957;29;20611;-58
2021/06/04 10:20:34;;;;;;;2.97;1.35;;;;;;;;;;4935220;29;20027;-58
2021/06/04 10:23:07;;;;;;;2.10;1.05;;;;;;;;;;4935339;29;20024;-59
2021/06/04 10:26:00;;;;;;;3.17;1.30;;;;;;;;;;4934869;29;20019;-58
2021/06/04 10:28:27;;;;;;;2.28;1.10;;;;;;;;;;4932940;29;20048;-56
2021/06/04 10:30:58;;;;;;;2.20;1.20;;;;;;;;;;4934676;29;20046;-59
2021/06/04 10:33:40;;;;;;;3.80;1.70;;;;;;;;;;4935423;29;20024;-60
2021/06/04 10:36:09;;;;;;;2.40;1.10;;;;;;;;;;4934769;29;20027;-59
2021/06/04 10:38:44;;;;;;;1.73;1.10;;;;;;;;;;4935222;29;20555;-59
2021/06/04 10:41:16;;;;;;;2.10;1.05;;;;;;;;;;4943516;29;20074;-58
2021/06/04 10:43:44;;;;;;;2.28;1.25;;;;;;;;;;4917703;29;20039;-57
2021/06/04 10:46:16;;;;;;;1.73;1.00;;;;;;;;;;4934928;29;20372;-53
2021/06/04 10:49:03;;;;;;;1.23;1.00;;;;;;;;;;4934544;29;20081;-59
2021/06/04 10:51:30;;;;;;;2.00;1.10;;;;;;;;;;4914307;29;20067;-58
2021/06/04 10:54:18;;;;;;;1.80;1.10;;;;;;;;;;4934583;29;20027;-60
2021/06/04 10:57:05;;;;;;;2.05;0.95;;;;;;;;;;4934540;29;20056;-59
2021/06/04 10:59:32;;;;;;;2.15;1.20;;;;;;;;;;4914619;29;20050;-60
2021/06/04 11:02:12;;;;;;;1.65;0.82;;;;;;;;;;4934691;29;20408;-60
2021/06/04 11:04:54;;;;;;;1.92;1.15;;;;;;;;;;4935047;29;20024;-60
2021/06/04 11:07:41;;;;;;;2.58;1.13;;;;;;;;;;4917007;29;20575;-59
2021/06/04 11:10:09;;;;;;;2.65;0.90;;;;;;;;;;4914576;29;20130;-60
2021/06/04 11:12:38;;;;;;;6.13;1.08;;;;;;;;;;4934171;29;20023;-58
2021/06/04 11:15:11;;;;;;;2.25;1.02;;;;;;;;;;4919460;29;20027;-60
2021/06/04 11:17:58;;;;;;;12.07;1.60;;;;;;;;;;4933641;29;20078;-46
2021/06/04 11:20:28;;;;;;;8.90;1.45;;;;;;;;;;4933511;29;20032;-45
2021/06/04 11:23:12;;;;;;;308.73;28.95;;;;;;;;;;4934344;29;20036;-44
2021/06/04 11:25:47;;;;;;;145.55;12.73;;;;;;;;;;4934645;29;20480;-45
2021/06/04 11:28:14;;;;;;;81.43;7.75;;;;;;;;;;4933436;29;20036;-42
2021/06/04 11:30:42;;;;;;;37.13;4.35;;;;;;;;;;4934369;29;20032;-44
2021/06/04 11:33:21;;;;;;;38.17;4.88;;;;;;;;;;4934707;29;20028;-42
2021/06/04 11:35:59;;;;;;;28.25;4.78;;;;;;;;;;4934412;29;20484;-43
2021/06/04 11:38:26;;;;;;;16.63;2.88;;;;;;;;;;4932865;29;20412;-43
2021/06/04 11:40:55;;;;;;;16.08;2.67;;;;;;;;;;4932722;29;20016;-44
2021/06/04 11:43:25;;;;;;;11.77;2.45;;;;;;;;;;4934482;29;20547;-44
2021/06/04 11:46:12;;;;;;;10.13;2.33;;;;;;;;;;4933947;29;20023;-46
2021/06/04 11:48:40;;;;;;;10.88;2.22;;;;;;;;;;4934716;29;20015;-47
2021/06/04 11:51:19;;;;;;;16.90;2.45;;;;;;;;;;4933605;29;20032;-45
2021/06/04 11:53:48;;;;;;;22.20;2.92;;;;;;;;;;4934361;29;20032;-46
2021/06/04 11:56:33;;;;;;;20.42;2.70;;;;;;;;;;4932563;29;20028;-47
2021/06/04 11:59:00;;;;;;;11.30;2.10;;;;;;;;;;4926662;29;20032;-49
2021/06/04 12:01:45;;;;;;;11.55;2.88;;;;;;;;;;4932294;29;20472;-54
2021/06/04 12:04:21;;;;;;;11.50;2.42;;;;;;;;;;4931075;29;20030;-49
2021/06/04 12:07:00;;;;;;;14.45;2.55;;;;;;;;;;4933037;29;20047;-48
2021/06/04 12:09:33;;;;;;;29.05;3.28;;;;;;;;;;4934319;29;20055;-49
2021/06/04 12:12:25;;;;;;;49.38;5.75;;;;;;;;;;4933631;29;20500;-48
2021/06/04 12:14:58;;;;;;;63.05;8.10;;;;;;;;;;4934210;29;20031;-47
2021/06/04 12:17:25;;;;;;;62.13;8.18;;;;;;;;;;4917232;29;20477;-49
2021/06/04 12:20:10;;;;;;;79.88;9.23;;;;;;;;;;4934409;29;20056;-59
2021/06/04 12:22:40;;;;;;;90.00;9.77;;;;;;;;;;4933556;29;20035;-50
2021/06/04 12:25:10;;;;;;;87.15;10.13;;;;;;;;;;4933689;29;20024;-50
2021/06/04 12:27:58;;;;;;;72.20;10.20;;;;;;;;;;4926734;29;20847;-53
2021/06/04 12:30:51;;;;;;;61.35;7.47;;;;;;;;;;4924592;29;20035;-60
2021/06/04 12:33:39;;;;;;;61.65;7.03;;;;;;;;;;4925572;29;20515;-48
2021/06/04 12:36:26;;;;;;;38.30;5.90;;;;;;;;;;4932053;29;20027;-57
2021/06/04 12:38:53;;;;;;;53.05;6.57;;;;;;;;;;4924194;29;20062;-48
2021/06/04 12:41:24;;;;;;;48.45;7.13;;;;;;;;;;4934356;29;20031;-51
2021/06/04 12:43:54;;;;;;;50.65;7.32;;;;;;;;;;4936476;29;20036;-51
2021/06/04 12:46:22;;;;;;;75.93;9.77;;;;;;;;;;4918312;29;20031;-51
2021/06/04 12:49:08;;;;;;;98.85;11.23;;;;;;;;;;4951446;29;20019;-50
2021/06/04 12:51:40;;;;;;;121.13;11.40;;;;;;;;;;4954843;29;20035;-46
2021/06/04 12:54:09;;;;;;;118.95;13.27;;;;;;;;;;4918913;29;20066;-58
2021/06/04 12:56:48;;;;;;;82.05;10.55;;;;;;;;;;4935761;29;20035;-60
2021/06/04 12:59:17;;;;;;;30.92;3.67;;;;;;;;;;4936407;29;20032;-65
2021/06/04 13:02:00;;;;;;;60.55;7.25;;;;;;;;;;4936358;29;20046;-47
2021/06/04 13:04:29;;;;;;;30.60;3.75;;;;;;;;;;4934275;29;20055;-50
2021/06/04 13:06:57;;;;;;;29.60;3.00;;;;;;;;;;4935080;29;20045;-54
2021/06/04 13:09:31;;;;;;;28.80;3.60;;;;;;;;;;4934705;29;20670;-47
2021/06/04 13:11:59;;;;;;;46.17;5.93;;;;;;;;;;4934028;29;20087;-52
2021/06/04 13:14:37;;;;;;;52.17;6.60;;;;;;;;;;4935104;29;20043;-47
2021/06/04 13:17:10;;;;;;;61.75;7.68;;;;;;;;;;4932417;29;20447;-49
2021/06/04 13:19:37;;;;;;;54.60;7.78;;;;;;;;;;4932752;29;20020;-49
2021/06/04 13:22:17;;;;;;;67.93;6.05;;;;;;;;;;4925928;29;20077;-51
2021/06/04 13:24:46;;;;;;;46.25;5.38;;;;;;;;;;4933376;29;20027;-64
2021/06/04 13:27:18;;;;;;;26.25;4.05;;;;;;;;;;4936659;29;20031;-49
2021/06/04 13:29:52;;;;;;;42.58;6.00;;;;;;;;;;4920926;29;20452;-47
2021/06/04 13:32:23;;;;;;;47.40;6.53;;;;;;;;;;4934412;29;20492;-50
2021/06/04 13:34:50;;;;;;;50.88;7.05;;;;;;;;;;4934635;29;20024;-54
2021/06/04 13:37:35;;;;;;;54.17;7.93;;;;;;;;;;4936290;29;20047;-49
2021/06/04 13:40:02;;;;;;;60.83;8.30;;;;;;;;;;4933838;29;20031;-53
2021/06/04 13:42:31;;;;;;;54.10;8.18;;;;;;;;;;4932472;29;20035;-49
2021/06/04 13:44:59;;;;;;;39.97;7.65;;;;;;;;;;4936325;29;20042;-49
2021/06/04 13:47:40;;;;;;;40.92;6.68;;;;;;;;;;4934307;29;20475;-50
2021/06/04 13:50:31;;;;;;;47.67;7.75;;;;;;;;;;4933923;29;20035;-49
2021/06/04 13:52:59;;;;;;;37.28;5.82;;;;;;;;;;4931808;29;20055;-49
2021/06/04 13:55:27;;;;;;;38.55;6.25;;;;;;;;;;4917771;29;20555;-49
2021/06/04 13:58:13;;;;;;;32.88;5.38;;;;;;;;;;4934143;29;20027;-46
2021/06/04 14:00:40;;;;;;;34.50;4.90;;;;;;;;;;4932894;29;20519;-47
2021/06/04 14:03:15;;;;;;;26.88;4.68;;;;;;;;;;4934933;29;20062;-47
2021/06/04 14:05:56;;;;;;;47.13;6.10;;;;;;;;;;4933129;29;20034;-55
2021/06/04 14:08:25;;;;;;;47.03;6.30;;;;;;;;;;4935709;29;20425;-56
2021/06/04 14:10:56;;;;;;;93.25;9.68;;;;;;;;;;4934814;29;20392;-56
2021/06/04 14:13:28;;;;;;;39.35;5.05;;;;;;;;;;4946601;29;20075;-56
2021/06/04 14:15:55;;;;;;;36.97;5.10;;;;;;;;;;4953539;29;20027;-46
2021/06/04 14:18:28;;;;;;;62.35;7.07;;;;;;;;;;4935701;29;20019;-48
2021/06/04 14:20:55;;;;;;;146.90;15.55;;;;;;;;;;4926544;29;20024;-50
2021/06/04 14:23:27;;;;;;;56.58;8.65;;;;;;;;;;4931283;29;20074;-53
2021/06/04 14:26:20;;;;;;;40.80;5.85;;;;;;;;;;4926412;29;20118;-53
2021/06/04 14:28:58;;;;;;;36.05;6.80;;;;;;;;;;4930757;29;20519;-56
2021/06/04 14:31:26;;;;;;;44.17;6.07;;;;;;;;;;4932625;29;20039;-50
2021/06/04 14:33:54;;;;;;;29.48;5.20;;;;;;;;;;4934464;29;20028;-48
2021/06/04 14:36:24;;;;;;;25.67;4.18;;;;;;;;;;4933173;29;20035;-51
2021/06/04 14:38:54;;;;;;;25.80;3.85;;;;;;;;;;4928526;29;20055;-58
2021/06/04 14:41:23;;;;;;;21.45;4.22;;;;;;;;;;4925253;29;20035;-50
2021/06/04 14:43:57;;;;;;;18.70;3.58;;;;;;;;;;4933177;29;20032;-50
2021/06/04 14:46:26;;;;;;;17.40;3.15;;;;;;;;;;4922739;29;20016;-49
2021/06/04 14:48:54;;;;;;;12.50;2.95;;;;;;;;;;4932767;29;20028;-50
2021/06/04 14:51:22;;;;;;;14.02;2.45;;;;;;;;;;4933542;29;20028;-48
2021/06/04 14:53:50;;;;;;;12.85;2.95;;;;;;;;;;4926178;29;20028;-46
2021/06/04 14:56:17;;;;;;;13.93;3.28;;;;;;;;;;4917680;29;20027;-50
2021/06/04 14:58:45;;;;;;;24.17;3.25;;;;;;;;;;4917821;29;20024;-51
2021/06/04 15:01:13;;;;;;;16.38;2.65;;;;;;;;;;4923199;29;20029;-54